Time;durP1;ratioP1;P1;durP2;ratioP2;P2;SDS_P1;SDS_P2;PMS_P1;PMS_P2;Temp;Humidity;BMP_temperature;BMP_pressure;BME280_temperature;BME280_humidity;BME280_pressure;Samples;Min_cycle;Max_cycle;Signal;HPM_P1;HPM_P2
2022/07/15 00:02:26;;;;;;;7.17;2.40;;;;;;;15.71;60.45;100154.12;2022588;87;28673;-64
2022/07/15 00:05:33;;;;;;;10.05;2.83;;;;;;;15.65;60.63;100152.23;2022569;87;31054;-59
2022/07/15 00:08:44;;;;;;;6.53;2.40;;;;;;;15.56;60.62;100143.94;2022251;87;31406;-60
2022/07/15 00:11:53;;;;;;;8.40;2.72;;;;;;;15.56;60.62;100143.94;2022194;87;30606;-59
2022/07/15 00:15:04;;;;;;;6.42;2.80;;;;;;;15.50;61.01;100154.20;2022410;87;28037;-63
2022/07/15 00:18:12;;;;;;;8.10;2.95;;;;;;;15.42;60.90;100150.34;2022641;87;28757;-62
2022/07/15 00:21:20;;;;;;;4.62;2.22;;;;;;;15.33;61.16;100161.31;2022343;87;31102;-62
2022/07/15 00:24:26;;;;;;;5.87;2.50;;;;;;;15.23;61.01;100169.70;2022484;87;32986;-64
2022/07/15 00:27:34;;;;;;;3.95;2.20;;;;;;;15.09;61.25;100155.84;2022522;87;29338;-59
2022/07/15 00:30:41;;;;;;;3.80;2.52;;;;;;;15.03;61.22;100166.11;2022553;87;27803;-59
2022/07/15 00:33:43;;;;;;;4.92;2.67;;;;;;;14.84;61.53;100167.87;2080155;81;28694;-65
2022/07/15 00:36:44;;;;;;;3.77;2.47;;;;;;;14.84;61.53;100167.87;2083917;85;32207;-65
2022/07/15 00:39:46;;;;;;;9.40;2.85;;;;;;;14.77;62.09;100173.33;2083641;85;33018;-65
2022/07/15 00:42:47;;;;;;;8.88;2.83;;;;;;;14.71;62.14;100172.39;2084029;84;29700;-65
2022/07/15 00:45:49;;;;;;;5.72;2.30;;;;;;;14.64;62.13;100171.08;2084173;85;27731;-65
2022/07/15 00:48:50;;;;;;;7.00;2.40;;;;;;;14.54;62.37;100175.73;2083907;84;29038;-65
2022/07/15 00:51:53;;;;;;;7.65;2.72;;;;;;;14.48;62.46;100182.03;2083565;85;31659;-64
2022/07/15 00:54:58;;;;;;;6.90;2.37;;;;;;;14.40;62.55;100176.66;2083874;84;33353;-65
2022/07/15 00:58:05;;;;;;;7.20;2.22;;;;;;;14.33;62.58;100184.80;2083564;85;30175;-65
2022/07/15 01:01:08;;;;;;;4.90;2.37;;;;;;;14.27;62.77;100181.16;2084058;85;27592;-64
2022/07/15 01:04:10;;;;;;;5.58;2.22;;;;;;;14.18;62.79;100181.29;2083980;85;29508;-64
2022/07/15 01:07:13;;;;;;;7.78;2.40;;;;;;;14.11;62.91;100182.69;2083783;85;31628;-64
2022/07/15 01:10:14;;;;;;;5.00;2.50;;;;;;;14.04;63.10;100193.00;2058183;85;34191;-64
2022/07/15 01:13:19;;;;;;;8.13;2.60;;;;;;;13.97;63.23;100197.05;2084108;85;29728;-63
2022/07/15 01:16:20;;;;;;;4.43;2.23;;;;;;;13.91;63.29;100217.17;2083971;84;27650;-64
2022/07/15 01:19:21;;;;;;;7.60;2.20;;;;;;;13.83;63.34;100204.21;2083959;85;29041;-62
2022/07/15 01:22:22;;;;;;;5.50;2.52;;;;;;;13.77;63.36;100210.48;2083969;85;31392;-62
2022/07/15 01:25:23;;;;;;;8.60;3.27;;;;;;;13.69;63.29;100210.97;2102165;84;33342;-62
2022/07/15 01:28:25;;;;;;;5.28;2.40;;;;;;;13.62;63.33;100201.55;2090094;85;29158;-62
2022/07/15 01:31:27;;;;;;;9.60;3.00;;;;;;;13.57;63.61;100209.92;2101973;84;27732;-62
2022/07/15 01:34:28;;;;;;;8.80;2.77;;;;;;;13.51;63.72;100212.53;2106264;84;29635;-63
2022/07/15 01:37:30;;;;;;;8.40;2.65;;;;;;;13.46;63.78;100211.09;2108209;84;32455;-63
2022/07/15 01:40:32;;;;;;;3.77;2.62;;;;;;;13.43;63.90;100219.36;2109251;84;34246;-63
2022/07/15 01:43:33;;;;;;;5.67;2.80;;;;;;;13.38;64.01;100220.97;2108189;84;30440;-63
2022/07/15 01:46:35;;;;;;;8.95;2.83;;;;;;;13.34;64.03;100218.92;2108186;84;27635;-64
2022/07/15 01:49:36;;;;;;;5.83;2.98;;;;;;;13.30;64.06;100222.80;2104944;84;29816;-64
2022/07/15 01:52:38;;;;;;;3.95;2.90;;;;;;;13.27;64.24;100223.44;2104832;84;30806;-65
2022/07/15 01:55:39;;;;;;;7.03;3.40;;;;;;;13.23;64.36;100225.47;2104493;84;33611;-65
2022/07/15 01:58:41;;;;;;;4.75;3.15;;;;;;;13.21;64.44;100227.38;2104812;84;30464;-65
2022/07/15 02:01:44;;;;;;;5.80;2.90;;;;;;;13.18;64.49;100228.91;2104940;84;27967;-63
2022/07/15 02:04:45;;;;;;;7.97;3.22;;;;;;;13.15;64.54;100228.63;2104858;84;28655;-64
2022/07/15 02:07:48;;;;;;;6.28;3.45;;;;;;;13.14;64.70;100230.94;2104921;84;31027;-63
2022/07/15 02:10:50;;;;;;;7.00;3.15;;;;;;;13.16;64.93;100233.52;2104472;84;33824;-63
2022/07/15 02:13:59;;;;;;;10.13;2.90;;;;;;;13.16;64.91;100229.48;2104789;84;29730;-63
2022/07/15 02:17:00;;;;;;;7.30;3.00;;;;;;;13.20;65.15;100237.75;2106404;84;27687;-62
2022/07/15 02:20:03;;;;;;;6.67;3.10;;;;;;;13.22;64.92;100240.76;2108414;84;29174;-63
2022/07/15 02:23:05;;;;;;;12.70;3.40;;;;;;;13.26;65.07;100243.23;2108312;84;32233;-63
2022/07/15 02:26:06;;;;;;;8.28;2.72;;;;;;;13.26;64.69;100245.92;2108176;84;34201;-63
2022/07/15 02:29:08;;;;;;;12.25;3.42;;;;;;;13.26;64.68;100251.30;2108219;84;30583;-63
2022/07/15 02:32:09;;;;;;;9.15;3.37;;;;;;;13.28;64.76;100258.80;2108814;84;27678;-63
2022/07/15 02:35:11;;;;;;;7.37;3.83;;;;;;;13.28;64.70;100266.41;2089630;84;29931;-63
2022/07/15 02:38:12;;;;;;;9.80;3.10;;;;;;;13.29;64.69;100268.61;2102116;84;32276;-63
2022/07/15 02:41:14;;;;;;;4.65;2.55;;;;;;;13.27;64.78;100256.61;2089597;85;34149;-64
2022/07/15 02:44:16;;;;;;;10.45;3.08;;;;;;;13.28;64.85;100262.84;2089687;84;30354;-62
2022/07/15 02:47:18;;;;;;;8.15;3.15;;;;;;;13.27;64.91;100267.37;2101923;84;27691;-64
2022/07/15 02:50:20;;;;;;;8.25;2.80;;;;;;;13.26;64.92;100269.67;2089656;85;29997;-65
2022/07/15 02:53:25;;;;;;;6.87;3.05;;;;;;;13.28;64.95;100272.25;2089627;85;32458;-63
2022/07/15 02:56:25;;;;;;;6.10;2.75;;;;;;;13.28;65.09;100272.25;2065091;85;33326;-63
2022/07/15 02:59:27;;;;;;;14.20;2.92;;;;;;;13.28;64.87;100274.48;2090059;84;29661;-63
2022/07/15 03:02:28;;;;;;;7.37;3.17;;;;;;;13.26;64.94;100280.44;2089785;85;28344;-64
2022/07/15 03:05:31;;;;;;;10.13;2.80;;;;;;;13.24;64.97;100290.91;2089650;85;29872;-63
2022/07/15 03:08:33;;;;;;;15.32;2.90;;;;;;;13.22;65.13;100287.84;2089626;85;32451;-63
2022/07/15 03:11:38;;;;;;;5.62;2.30;;;;;;;13.20;65.16;100293.78;2090258;84;33789;-63
2022/07/15 03:14:40;;;;;;;;;;;;;;;13.20;65.29;100299.16;2092204;85;30599;-63
2022/07/15 03:17:41;;;;;;;8.20;2.60;;;;;;;13.18;65.40;100298.85;2089185;85;27660;-64
2022/07/15 03:20:45;;;;;;;7.20;2.42;;;;;;;13.15;65.33;100307.98;2088810;85;28693;-63
2022/07/15 03:23:47;;;;;;;4.45;2.30;;;;;;;13.13;65.32;100311.23;2089119;85;31115;-63
2022/07/15 03:26:49;;;;;;;5.78;2.10;;;;;;;13.13;65.42;100322.00;2088711;85;33131;-63
2022/07/15 03:29:51;;;;;;;6.08;2.40;;;;;;;13.13;65.45;100320.66;2089298;85;29889;-62
2022/07/15 03:32:54;;;;;;;6.08;2.05;;;;;;;13.15;65.44;100325.47;2090445;84;27699;-64
2022/07/15 03:35:56;;;;;;;4.67;1.82;;;;;;;13.16;65.43;100327.20;2102936;84;29277;-63
2022/07/15 03:38:58;;;;;;;7.10;2.08;;;;;;;13.18;65.33;100328.44;2103071;84;32379;-63
2022/07/15 03:42:00;;;;;;;13.68;3.67;;;;;;;13.20;65.57;100330.10;2103153;84;32574;-63
2022/07/15 03:45:03;;;;;;;7.17;2.02;;;;;;;13.25;65.59;100338.34;2102790;84;29399;-62
2022/07/15 03:48:05;;;;;;;10.48;3.52;;;;;;;13.27;65.67;100340.47;2108956;84;28219;-63
2022/07/15 03:51:07;;;;;;;8.18;1.87;;;;;;;13.31;65.65;100345.59;2109279;84;29522;-63
2022/07/15 03:54:09;;;;;;;5.20;1.80;;;;;;;13.34;65.50;100347.23;2109711;84;31394;-62
2022/07/15 03:57:10;;;;;;;7.17;2.40;;;;;;;13.36;65.34;100350.70;2115533;84;34116;-62
2022/07/15 04:00:13;;;;;;;4.85;2.05;;;;;;;13.41;65.25;100356.67;2114870;84;30497;-62
2022/07/15 04:03:16;;;;;;;4.95;1.70;;;;;;;13.47;65.33;100365.73;2115682;84;28205;-62
2022/07/15 04:06:20;;;;;;;2.87;1.60;;;;;;;13.54;65.26;100358.14;2114872;84;28666;-62
2022/07/15 04:09:21;;;;;;;8.15;2.08;;;;;;;13.57;64.88;100357.97;2115241;84;31152;-62
2022/07/15 04:12:23;;;;;;;6.20;1.82;;;;;;;13.63;64.90;100360.75;2078138;85;33408;-62
2022/07/15 04:15:25;;;;;;;4.87;1.85;;;;;;;13.70;65.04;100365.28;2110928;84;29395;-62
2022/07/15 04:18:27;;;;;;;7.40;2.10;;;;;;;13.77;64.66;100370.69;2108429;84;27717;-63
2022/07/15 04:21:28;;;;;;;5.35;1.82;;;;;;;13.83;64.45;100366.24;2108044;83;29950;-61
2022/07/15 04:24:32;;;;;;;6.47;1.90;;;;;;;13.89;64.42;100372.60;2108043;84;32274;-62
2022/07/15 04:27:35;;;;;;;8.53;2.15;;;;;;;13.96;64.23;100369.92;2108014;84;31979;-62
2022/07/15 04:30:37;;;;;;;9.28;1.70;;;;;;;14.05;64.16;100371.17;2108379;84;29376;-62
2022/07/15 04:33:39;;;;;;;4.17;1.70;;;;;;;14.13;63.98;100380.97;2108354;84;28020;-62
2022/07/15 04:36:41;;;;;;;6.03;1.95;;;;;;;14.24;63.95;100382.10;2108212;84;28716;-63
2022/07/15 04:39:43;;;;;;;5.25;1.60;;;;;;;14.33;63.58;100384.23;2108128;84;31062;-62
2022/07/15 04:42:46;;;;;;;13.75;2.22;;;;;;;14.42;63.53;100393.05;2108248;84;33491;-63
2022/07/15 04:45:48;;;;;;;5.40;1.87;;;;;;;14.69;63.73;100399.48;2109645;84;30038;-63
2022/07/15 04:52:14;;;;;;;3.30;1.40;;;;;;;17.39;63.70;100392.72;2115039;84;28729;-63
2022/07/15 04:55:16;;;;;;;1.80;1.15;;;;;;;19.26;62.42;100394.02;2115584;84;31019;-64
2022/07/15 04:58:18;;;;;;;5.25;1.77;;;;;;;20.84;60.07;100392.98;2114708;84;35059;-62
2022/07/15 05:01:21;;;;;;;3.87;1.40;;;;;;;22.29;57.89;100399.41;2115045;84;30370;-63
2022/07/15 05:04:23;;;;;;;8.75;1.42;;;;;;;23.57;56.63;100395.36;2115097;84;27718;-64
2022/07/15 05:07:25;;;;;;;5.37;1.72;;;;;;;24.68;53.92;100398.38;2115222;84;28131;-64
2022/07/15 05:10:28;;;;;;;4.15;1.22;;;;;;;25.47;51.96;100403.02;2114795;84;32226;-64
2022/07/15 05:13:29;;;;;;;2.62;1.67;;;;;;;26.22;50.15;100403.79;2115257;84;33955;-65
2022/07/15 05:16:32;;;;;;;3.75;1.30;;;;;;;26.91;48.80;100408.33;2074791;85;30564;-65
2022/07/15 05:19:35;;;;;;;2.77;1.40;;;;;;;27.64;47.67;100411.58;2071516;85;28216;-65
2022/07/15 05:22:37;;;;;;;2.72;1.05;;;;;;;28.33;45.88;100413.84;2073651;85;29061;-64
2022/07/15 05:25:38;;;;;;;5.35;1.10;;;;;;;28.94;44.81;100426.52;2093273;84;31656;-63
2022/07/15 05:28:41;;;;;;;3.02;1.30;;;;;;;29.52;42.66;100421.53;2108045;84;34357;-64
2022/07/15 05:31:43;;;;;;;3.85;1.42;;;;;;;29.92;41.70;100423.77;2107985;84;30142;-65
2022/07/15 05:34:45;;;;;;;3.45;0.98;;;;;;;30.33;40.68;100427.67;2108309;84;27703;-65
2022/07/15 05:37:47;;;;;;;2.20;1.20;;;;;;;30.70;39.78;100430.55;2107997;84;28711;-64
2022/07/15 05:40:50;;;;;;;3.90;1.47;;;;;;;30.92;38.85;100432.64;2108177;84;31908;-65
2022/07/15 05:43:52;;;;;;;3.37;1.70;;;;;;;31.09;37.72;100426.73;2108063;84;33990;-64
2022/07/15 05:46:54;;;;;;;5.33;2.20;;;;;;;30.95;36.73;100431.36;2108059;84;29375;-65
2022/07/15 05:49:56;;;;;;;6.85;1.80;;;;;;;30.83;36.00;100433.03;2108353;84;28326;-65
2022/07/15 05:52:58;;;;;;;5.87;1.87;;;;;;;30.70;34.18;100442.98;2109343;84;29454;-65
2022/07/15 05:56:00;;;;;;;3.12;1.67;;;;;;;30.42;33.81;100434.22;2115164;84;32338;-66
2022/07/15 05:59:01;;;;;;;3.62;1.52;;;;;;;30.25;34.66;100443.34;2114715;84;34337;-65
2022/07/15 06:02:03;;;;;;;6.67;1.22;;;;;;;30.15;33.59;100444.25;2115653;84;29740;-66
2022/07/15 06:05:05;;;;;;;4.08;1.30;;;;;;;29.93;33.54;100442.05;2078383;85;27674;-66
2022/07/15 06:08:07;;;;;;;4.03;1.12;;;;;;;29.94;32.95;100451.50;2115569;84;29665;-66
2022/07/15 06:11:11;;;;;;;4.05;1.10;;;;;;;30.09;33.14;100452.83;2115431;84;31394;-66
2022/07/15 06:14:12;;;;;;;2.25;1.10;;;;;;;30.42;32.63;100446.66;2115092;84;33517;-66
2022/07/15 06:17:14;;;;;;;2.90;1.30;;;;;;;30.49;32.09;100445.31;2115157;84;30526;-67
2022/07/15 06:20:16;;;;;;;5.40;0.85;;;;;;;30.64;31.42;100446.56;2114979;84;28914;-66
2022/07/15 06:23:18;;;;;;;3.62;0.90;;;;;;;30.50;30.72;100444.77;2115415;83;29116;-66
2022/07/15 06:26:19;;;;;;;3.62;1.32;;;;;;;30.49;30.49;100451.34;2073081;85;32214;-64
2022/07/15 06:29:21;;;;;;;3.98;1.00;;;;;;;30.61;30.47;100454.75;2073264;85;33326;-66
2022/07/15 06:32:22;;;;;;;3.87;1.20;;;;;;;30.75;30.16;100458.95;2073388;85;29699;-66
2022/07/15 06:35:24;;;;;;;3.60;1.07;;;;;;;30.85;29.60;100456.68;2061311;85;27684;-66
2022/07/15 06:38:25;;;;;;;5.00;1.42;;;;;;;31.05;29.54;100462.80;2052026;85;28670;-64
2022/07/15 06:41:27;;;;;;;3.17;1.20;;;;;;;31.14;29.00;100457.95;2051804;86;31398;-64
2022/07/15 06:44:29;;;;;;;3.30;1.57;;;;;;;31.24;28.62;100461.20;2051884;86;33008;-64
2022/07/15 06:47:30;;;;;;;4.78;1.40;;;;;;;31.33;28.59;100465.46;2052082;86;29695;-65
2022/07/15 06:50:32;;;;;;;3.37;1.30;;;;;;;31.59;28.09;100459.66;2051589;86;28147;-64
2022/07/15 06:53:34;;;;;;;3.75;1.07;;;;;;;31.63;28.14;100458.15;2051349;86;28671;-64
2022/07/15 06:56:35;;;;;;;3.87;1.17;;;;;;;31.78;27.67;100459.38;2079480;85;31452;-64
2022/07/15 06:59:37;;;;;;;3.67;1.00;;;;;;;31.76;27.56;100464.81;2086312;85;32985;-65
2022/07/15 07:02:38;;;;;;;5.40;2.17;;;;;;;31.77;27.62;100466.52;2049888;86;30522;-66
2022/07/15 07:05:40;;;;;;;5.78;1.40;;;;;;;31.72;27.36;100471.84;2050000;86;27657;-64
2022/07/15 07:08:41;;;;;;;1.72;1.35;;;;;;;31.72;27.20;100469.91;2086196;85;28734;-64
2022/07/15 07:11:43;;;;;;;5.00;1.25;;;;;;;31.81;27.20;100477.48;2085609;83;32261;-64
2022/07/15 07:14:46;;;;;;;2.22;1.27;;;;;;;31.84;26.85;100475.67;2085957;85;34298;-63
2022/07/15 07:17:48;;;;;;;7.45;1.65;;;;;;;31.72;26.09;100467.13;2085585;85;30380;-66
2022/07/15 07:20:51;;;;;;;6.42;1.60;;;;;;;31.57;26.08;100478.91;2086004;85;27635;-64
2022/07/15 07:23:54;;;;;;;2.00;1.20;;;;;;;31.49;26.68;100478.59;2086332;85;28820;-65
2022/07/15 07:26:56;;;;;;;2.10;1.20;;;;;;;31.72;26.74;100481.53;2086735;85;30466;-64
2022/07/15 07:29:59;;;;;;;4.78;1.45;;;;;;;31.81;26.50;100474.19;2101919;84;32298;-64
2022/07/15 07:33:02;;;;;;;2.98;1.57;;;;;;;31.91;26.43;100480.69;2090205;85;29338;-64
2022/07/15 07:36:06;;;;;;;2.27;1.00;;;;;;;31.88;26.44;100483.02;2102080;84;27720;-64
2022/07/15 07:39:09;;;;;;;4.58;1.27;;;;;;;32.04;26.64;100485.36;2090326;85;29525;-64
2022/07/15 07:42:11;;;;;;;2.80;1.52;;;;;;;32.12;26.37;100487.92;2102169;84;32353;-64
2022/07/15 07:45:13;;;;;;;6.55;1.70;;;;;;;31.86;26.18;100484.63;2090248;85;32975;-65
2022/07/15 07:48:16;;;;;;;5.28;1.37;;;;;;;31.84;26.38;100489.52;2089902;84;29470;-64
2022/07/15 07:51:19;;;;;;;3.90;1.47;;;;;;;32.00;26.40;100477.69;2090175;85;27706;-64
2022/07/15 07:54:21;;;;;;;4.83;1.30;;;;;;;31.76;26.13;100480.89;2089082;85;28682;-64
2022/07/15 07:57:23;;;;;;;2.67;1.22;;;;;;;31.65;25.97;100480.11;2089045;85;32489;-65
2022/07/15 08:00:27;;;;;;;3.83;1.02;;;;;;;31.16;25.94;100482.13;2089399;85;33345;-66
2022/07/15 08:03:29;;;;;;;3.42;1.40;;;;;;;30.44;25.77;100479.10;2089602;85;29328;-65
2022/07/15 08:06:33;;;;;;;2.45;1.20;;;;;;;29.89;26.04;100479.40;2089250;85;27663;-65
2022/07/15 08:09:36;;;;;;;2.65;1.10;;;;;;;29.46;26.39;100480.27;2089120;85;43877;-65
2022/07/15 08:12:38;;;;;;;5.20;1.32;;;;;;;29.04;26.81;100478.61;2088998;85;32036;-66
2022/07/15 08:15:40;;;;;;;2.42;1.25;;;;;;;28.39;27.14;100489.38;2089312;85;33042;-66
2022/07/15 08:18:43;;;;;;;3.00;1.35;;;;;;;27.67;27.68;100501.20;2102279;83;29330;-66
2022/07/15 08:21:45;;;;;;;4.17;1.05;;;;;;;27.64;28.36;100496.90;2090122;85;27761;-66
2022/07/15 08:24:49;;;;;;;3.40;1.45;;;;;;;27.94;28.22;100479.62;2090174;84;28647;-66
2022/07/15 08:27:50;;;;;;;2.20;1.00;;;;;;;27.75;28.05;100488.73;2090295;85;31023;-66
2022/07/15 08:30:52;;;;;;;5.42;1.05;;;;;;;27.43;28.47;100487.91;2102120;83;32944;-66
2022/07/15 08:33:54;;;;;;;3.12;1.40;;;;;;;26.98;28.61;100493.16;2090174;85;29328;-66
2022/07/15 08:36:57;;;;;;;3.92;1.20;;;;;;;26.84;29.53;100498.91;2089896;84;27661;-66
2022/07/15 08:40:00;;;;;;;2.72;1.00;;;;;;;26.97;29.23;100503.31;2102288;84;29603;-66
2022/07/15 08:43:04;;;;;;;1.67;0.95;;;;;;;26.73;29.34;100493.25;2090106;85;31036;-64
2022/07/15 08:46:08;;;;;;;3.22;1.60;;;;;;;26.36;29.48;100501.59;2102303;84;32993;-64
2022/07/15 08:49:16;;;;;;;4.00;1.25;;;;;;;26.13;29.79;100499.59;2090072;85;30138;-64
2022/07/15 08:52:17;;;;;;;3.50;1.07;;;;;;;25.94;29.67;100507.63;2090346;84;27592;-63
2022/07/15 08:55:19;;;;;;;4.72;1.27;;;;;;;25.61;29.67;100513.97;2090147;85;29133;-64
2022/07/15 08:58:22;;;;;;;2.60;1.00;;;;;;;25.81;30.20;100509.53;2090424;84;31077;-66
2022/07/15 09:01:24;;;;;;;15.55;1.70;;;;;;;25.89;30.20;100504.56;2089716;85;34190;-67
2022/07/15 09:04:25;;;;;;;7.85;1.42;;;;;;;26.14;30.44;100504.56;2090252;84;30437;-64
2022/07/15 09:07:26;;;;;;;4.62;0.95;;;;;;;26.43;30.35;100507.24;2090660;85;27669;-63
2022/07/15 09:10:58;;;;;;;5.92;1.32;;;;;;;26.24;29.76;100510.21;2090582;84;29002;-64
2022/07/15 09:14:00;;;;;;;1.72;0.98;;;;;;;26.17;30.23;100507.80;2089632;84;32244;-63
2022/07/15 09:17:17;;;;;;;2.02;1.07;;;;;;;26.03;30.09;100518.09;2041473;85;33856;-64
2022/07/15 09:20:18;;;;;;;4.40;1.07;;;;;;;25.70;30.19;100527.19;2086300;85;30407;-63
2022/07/15 09:23:29;;;;;;;3.22;1.30;;;;;;;25.35;30.66;100527.78;2086024;85;27712;-62
2022/07/15 09:26:38;;;;;;;5.95;1.45;;;;;;;25.04;30.46;100527.00;2085200;85;29208;-65
2022/07/15 09:36:25;;;;;;;5.83;1.30;;;;;;;25.42;31.54;100523.36;2085493;84;30599;-66
2022/07/15 09:39:27;;;;;;;7.45;0.93;;;;;;;25.94;31.05;100513.98;2086047;85;27695;-65
2022/07/15 09:42:32;;;;;;;2.12;0.95;;;;;;;25.99;30.66;100522.20;2085531;85;29933;-62
2022/07/15 09:45:37;;;;;;;2.77;1.10;;;;;;;25.84;30.23;100530.28;2086305;85;31101;-66
2022/07/15 09:48:41;;;;;;;6.15;1.20;;;;;;;25.65;30.23;100530.10;2086668;84;34057;-67
2022/07/15 09:52:00;;;;;;;2.35;1.15;;;;;;;25.46;29.82;100530.76;2086944;85;28731;-67
2022/07/15 09:55:02;;;;;;;3.17;1.30;;;;;;;25.33;30.22;100532.57;2069618;85;27660;-66
2022/07/15 09:58:08;;;;;;;1.77;0.80;;;;;;;25.46;30.65;100516.52;2085536;85;29999;-67
2022/07/15 10:01:12;;;;;;;7.08;1.22;;;;;;;25.74;30.37;100525.80;2085465;85;32123;-67
2022/07/15 10:04:16;;;;;;;2.10;1.07;;;;;;;25.88;30.33;100520.16;2086031;85;33788;-60
2022/07/15 10:07:20;;;;;;;1.95;0.90;;;;;;;25.89;29.88;100516.91;2101822;84;30586;-61
2022/07/15 10:10:21;;;;;;;5.40;1.02;;;;;;;25.90;29.92;100521.34;2050831;85;27672;-60
2022/07/15 10:13:55;;;;;;;4.08;1.00;;;;;;;25.96;29.76;100515.17;2102011;84;29051;-61
2022/07/15 10:17:17;;;;;;;5.33;1.20;;;;;;;25.91;29.73;100528.55;2088660;85;32234;-64
2022/07/15 10:20:37;;;;;;;5.17;1.10;;;;;;;25.71;29.27;100530.78;2083456;85;33771;-60
2022/07/15 10:24:19;;;;;;;5.55;1.32;;;;;;;25.71;29.89;100531.66;2088450;85;30716;-66
2022/07/15 10:27:55;;;;;;;2.00;0.80;;;;;;;25.78;29.87;100533.20;2055496;86;28285;-64
2022/07/15 10:31:27;;;;;;;3.95;0.72;;;;;;;25.60;29.28;100524.61;2055665;86;29955;-68
2022/07/15 10:34:36;;;;;;;3.67;1.30;;;;;;;25.47;29.22;100521.50;2064742;85;31854;-67
2022/07/15 10:37:38;;;;;;;2.87;1.27;;;;;;;25.30;28.93;100535.14;2086511;84;33374;-68
2022/07/15 10:41:02;;;;;;;5.65;1.20;;;;;;;25.23;29.42;100528.59;2065858;85;30044;-67
2022/07/15 10:44:11;;;;;;;1.85;0.93;;;;;;;25.28;29.68;100541.80;2087440;85;33517;-70
2022/07/15 10:47:18;;;;;;;4.53;1.32;;;;;;;25.17;29.84;100528.76;2088568;85;29021;-70
2022/07/15 10:50:39;;;;;;;1.98;0.65;;;;;;;25.22;29.47;100517.81;2088945;85;31919;-74
2022/07/15 10:53:46;;;;;;;3.65;1.10;;;;;;;25.30;30.01;100530.16;2107677;84;33059;-75
2022/07/15 10:56:51;;;;;;;6.80;0.95;;;;;;;25.47;30.01;100519.60;2054985;86;29298;-72
2022/07/15 10:59:55;;;;;;;4.17;1.02;;;;;;;25.36;29.35;100525.39;2036334;87;27642;-74
2022/07/15 11:03:17;;;;;;;7.05;0.90;;;;;;;25.18;29.41;100520.00;2072168;86;28817;-69
2022/07/15 11:06:19;;;;;;;2.92;1.30;;;;;;;24.95;29.51;100516.52;2093036;83;30461;-65
2022/07/15 11:09:58;;;;;;;3.40;1.10;;;;;;;24.95;29.83;100529.34;2056335;86;32981;-78
2022/07/15 11:13:03;;;;;;;2.87;1.07;;;;;;;24.96;29.92;100533.81;2030172;86;29542;-70
2022/07/15 11:16:06;;;;;;;;;;;;;;;25.06;30.09;100526.33;2030327;86;27738;-71
2022/07/15 11:19:11;;;;;;;3.77;1.00;;;;;;;25.07;29.90;100529.91;2049270;86;29507;-74
2022/07/15 11:22:12;;;;;;;2.75;0.95;;;;;;;24.94;30.07;100522.14;2048554;86;31950;-68
2022/07/15 11:25:24;;;;;;;2.40;1.20;;;;;;;24.94;29.94;100529.00;2048333;86;33019;-70
2022/07/15 11:28:25;;;;;;;3.67;0.90;;;;;;;24.99;30.21;100532.11;2048873;86;30243;-68
2022/07/15 11:31:26;;;;;;;2.55;1.27;;;;;;;25.10;30.27;100526.84;2049698;86;27767;-67
2022/07/15 11:34:42;;;;;;;4.40;1.25;;;;;;;25.19;29.88;100524.46;2047436;86;28638;-68
2022/07/15 11:37:44;;;;;;;7.83;1.20;;;;;;;25.26;30.02;100523.28;2022863;85;30895;-68
2022/07/15 11:44:30;;;;;;;2.02;1.20;;;;;;;25.29;29.75;100527.06;2066975;83;29379;-68
2022/07/15 11:47:32;;;;;;;2.95;1.02;;;;;;;25.18;29.82;100522.75;2093219;84;27732;-68
2022/07/15 11:50:37;;;;;;;4.55;1.35;;;;;;;24.89;29.55;100533.61;2089654;83;28716;-67
2022/07/15 11:53:45;;;;;;;3.22;1.07;;;;;;;24.54;29.87;100536.81;2093830;83;30877;-66
2022/07/15 11:56:59;;;;;;;7.00;1.05;;;;;;;24.41;30.39;100529.91;2089158;83;32986;-66
2022/07/15 12:00:01;;;;;;;2.52;1.12;;;;;;;24.43;30.52;100524.25;2087820;84;29448;-66
2022/07/15 12:03:08;;;;;;;2.55;1.17;;;;;;;24.22;29.92;100524.63;2089867;85;27645;-66
2022/07/15 12:06:20;;;;;;;2.25;0.80;;;;;;;24.10;30.33;100520.80;2089397;83;28668;-71
2022/07/15 12:09:21;;;;;;;8.80;1.07;;;;;;;24.12;30.59;100527.46;2089757;85;31065;-71
2022/07/15 12:12:22;;;;;;;7.97;1.00;;;;;;;24.12;30.89;100528.83;2089575;83;33785;-71
2022/07/15 12:15:24;;;;;;;9.10;1.82;;;;;;;24.24;30.92;100532.17;2089413;83;30087;-71
2022/07/15 12:18:25;;;;;;;4.05;0.78;;;;;;;24.27;30.55;100530.49;2089733;85;27710;-68
2022/07/15 12:21:29;;;;;;;4.35;1.20;;;;;;;24.39;30.81;100522.88;2084609;85;27728;-65
2022/07/15 12:24:43;;;;;;;1.72;0.90;;;;;;;24.49;30.78;100529.09;2089783;84;32231;-67
2022/07/15 12:27:45;;;;;;;5.03;1.37;;;;;;;24.50;30.58;100525.83;2088498;85;33640;-64
2022/07/15 12:30:46;;;;;;;3.05;1.10;;;;;;;24.45;30.57;100540.54;2064261;85;29379;-67
2022/07/15 12:33:50;;;;;;;26.60;2.45;;;;;;;24.29;30.44;100538.04;2085469;83;27564;-70
2022/07/15 12:36:56;;;;;;;14.73;1.60;;;;;;;24.30;31.21;100534.28;2095892;84;28636;-71
2022/07/15 12:40:23;;;;;;;40.80;4.50;;;;;;;24.38;30.75;100526.11;2108102;84;31039;-69
2022/07/15 12:43:56;;;;;;;4.20;1.40;;;;;;;24.40;30.88;100530.92;2108121;83;33894;-70
2022/07/15 12:47:05;;;;;;;3.17;1.20;;;;;;;24.42;30.95;100529.38;2104275;84;30215;-70
2022/07/15 12:50:13;;;;;;;4.83;1.60;;;;;;;24.39;30.42;100536.05;2095919;83;27662;-70
2022/07/15 12:53:22;;;;;;;4.22;1.55;;;;;;;24.26;30.57;100541.94;2107281;83;27741;-70
2022/07/15 12:56:23;;;;;;;4.10;1.20;;;;;;;24.14;30.23;100534.17;2108136;84;31019;-70
2022/07/15 12:59:39;;;;;;;3.85;1.17;;;;;;;23.90;30.44;100538.37;2107845;84;33649;-70
2022/07/15 13:03:21;;;;;;;3.22;1.40;;;;;;;23.74;30.52;100533.11;2104739;84;30035;-70
2022/07/15 13:06:22;;;;;;;4.72;1.22;;;;;;;23.64;30.90;100525.50;2104035;84;27582;-67
2022/07/15 13:09:24;;;;;;;10.38;1.70;;;;;;;23.77;31.24;100520.98;2108058;84;28693;-68
2022/07/15 13:12:25;;;;;;;2.47;1.02;;;;;;;23.88;31.04;100519.88;2108242;84;31014;-68
2022/07/15 13:15:26;;;;;;;2.27;1.10;;;;;;;24.01;31.24;100520.89;2107735;83;32950;-67
2022/07/15 13:18:29;;;;;;;4.83;1.60;;;;;;;24.12;30.92;100527.46;2107829;84;29375;-68
2022/07/15 13:21:30;;;;;;;2.37;1.10;;;;;;;24.21;30.77;100536.59;2108167;84;27798;-66
2022/07/15 13:24:32;;;;;;;5.28;1.15;;;;;;;24.33;30.88;100531.20;2107970;83;28663;-67
2022/07/15 13:27:33;;;;;;;3.58;1.15;;;;;;;24.49;30.94;100531.83;2086648;83;31062;-67
2022/07/15 13:30:37;;;;;;;3.47;1.17;;;;;;;24.54;30.57;100535.45;2084589;84;28752;-66
2022/07/15 13:33:39;;;;;;;1.85;0.85;;;;;;;24.47;30.22;100535.23;2108061;84;29320;-67
2022/07/15 13:36:40;;;;;;;4.58;1.37;;;;;;;24.30;30.34;100532.92;2106610;83;27717;-67
2022/07/15 13:39:41;;;;;;;2.67;1.15;;;;;;;24.07;30.37;100532.05;2108068;84;28652;-66
2022/07/15 13:42:43;;;;;;;7.95;1.50;;;;;;;23.90;30.23;100522.84;2108171;84;31031;-67
2022/07/15 13:45:44;;;;;;;2.98;1.10;;;;;;;23.91;30.59;100527.78;2108100;83;33763;-66
2022/07/15 13:48:45;;;;;;;2.90;0.85;;;;;;;23.91;30.38;100524.52;2108109;84;29371;-66
2022/07/15 13:51:46;;;;;;;2.83;0.85;;;;;;;23.96;30.58;100529.55;2109034;83;27726;-67
2022/07/15 13:54:48;;;;;;;3.33;1.32;;;;;;;24.05;30.64;100529.14;2099759;83;30174;-72
2022/07/15 13:57:52;;;;;;;1.50;1.10;;;;;;;24.09;30.77;100528.66;2106885;84;31814;-70
2022/07/15 14:00:54;;;;;;;2.47;1.12;;;;;;;24.20;31.13;100522.55;2097818;83;32938;-69
2022/07/15 14:03:55;;;;;;;5.15;1.30;;;;;;;24.36;30.63;100535.52;2102802;84;29315;-70
2022/07/15 14:06:56;;;;;;;4.22;1.50;;;;;;;24.40;30.34;100523.23;2106903;83;27859;-71
2022/07/15 14:09:58;;;;;;;1.82;1.05;;;;;;;24.45;30.44;100520.00;2108132;83;28626;-70
2022/07/15 14:12:59;;;;;;;2.33;0.75;;;;;;;24.46;30.54;100525.83;2106657;84;31011;-72
2022/07/15 14:16:00;;;;;;;5.08;1.47;;;;;;;24.41;30.40;100523.05;2107727;84;33942;-72
2022/07/15 14:19:01;;;;;;;3.20;1.62;;;;;;;24.37;30.47;100524.39;2107989;83;30158;-70
2022/07/15 14:22:02;;;;;;;4.33;1.80;;;;;;;24.30;30.44;100526.56;2107761;84;27900;-73
2022/07/15 14:25:08;;;;;;;3.45;1.35;;;;;;;24.24;30.56;100527.55;2107889;83;29405;-72
2022/07/15 14:28:09;;;;;;;2.55;1.10;;;;;;;24.26;30.50;100524.14;2108009;83;33523;-70
2022/07/15 14:31:12;;;;;;;1.42;0.80;;;;;;;24.24;30.59;100514.38;2108118;84;32935;-71